DATE METEO

IERI
Time Temp. Dewp. Hum. Wind dir Wind speed Wind gust Bar. 1h Prec. 24h Prec.
00:05 14.8 13 89 226 1.1 2.5 1012.2 0.0000 0.0000
00:15 14.7 12.9 89 225 1.1 1.9 1012.1 0.0000 0.0000
00:25 14.6 12.8 89 223 1.4 1.9 1012.2 0.0000 0.0000
00:36 14.4 12.6 89 221 1.1 1.9 1012.1 0.0000 0.0000
00:46 14.2 12.4 89 223 1.1 1.9 1012.2 0.0000 0.0000
00:55 14.1 12.5 90 217 1.1 1.7 1012.4 0.0000 0.0000
01:05 14 12.4 90 231 1.1 2.5 1012.2 0.0000 0.0000
01:16 13.9 12.3 90 235 1.4 2.5 1012.2 0.0000 0.0000
01:26 13.8 12.2 90 237 1.1 2.5 1012.2 0.0000 0.0000
01:36 13.7 12.1 90 231 1.1 2.5 1012.3 0.0000 0.0000
01:46 13.5 11.9 90 219 0.6 1.4 1012.2 0.0000 0.0000
01:56 13.2 11.6 90 135 0.6 1.7 1012.1 0.0000 0.0000
02:06 13 11.4 90 223 1.4 2.5 1012.1 0.0000 0.0000
02:16 12.8 11.2 90 225 1.7 2.8 1012.1 0.0000 0.0000
02:27 12.5 10.9 90 223 1.4 2.5 1012.2 0.0000 0.0000
02:38 12.2 10.8 91 226 1.4 2.8 1012.1 0.0000 0.0000
02:47 12.1 10.7 91 225 1.4 2.8 1011.9 0.0000 0.0000
02:57 11.9 10.5 91 225 1.4 2.5 1012 0.0000 0.0000
03:08 11.7 10.3 91 226 1.1 2.5 1012 0.0000 0.0000
03:18 11.4 10 91 225 1.1 1.7 1011.8 0.0000 0.0000
03:27 11.3 9.9 91 257 1.7 2.5 1011.9 0.0000 0.0000
03:38 11 9.6 91 228 1.9 3.1 1011.6 0.0000 0.0000
03:48 10.8 9.4 91 230 1.9 3.1 1011.5 0.0000 0.0000
03:58 10.6 9.2 91 228 1.9 3.1 1011.6 0.0000 0.0000
04:08 10.5 9.1 91 229 1.9 3.1 1011.5 0.0000 0.0000
04:18 10.3 9.1 92 227 2.5 3.3 1011.4 0.0000 0.0000
04:28 10.2 9 92 230 2.5 3.1 1011.7 0.0000 0.0000
04:38 10 8.8 92 229 2.5 3.1 1011.5 0.0000 0.0000
04:48 9.8 8.6 92 232 2.5 3.1 1011.4 0.0000 0.0000
04:59 9.7 8.5 92 229 1.9 3.6 1011.6 0.0000 0.0000
05:08 9.5 8.3 92 230 2.8 4.2 1011.4 0.0000 0.0000
05:18 9.4 8.2 92 229 2.8 3.6 1011.4 0.0000 0.0000
05:29 9.2 8 92 230 2.8 3.6 1011.4 0.0000 0.0000
05:39 9.1 7.9 92 230 2.8 3.6 1011.3 0.0000 0.0000
05:49 9 7.8 92 229 2.8 3.6 1011.3 0.0000 0.0000
05:58 8.9 7.7 92 229 2.8 3.6 1011.2 0.0000 0.0000
06:09 8.8 7.6 92 228 2.8 3.3 1011.2 0.0000 0.0000
06:19 8.7 7.5 92 228 2.8 4.2 1011.4 0.0000 0.0000
06:29 8.6 7.4 92 231 2.8 3.3 1011.2 0.0000 0.0000
06:39 8.5 7.3 92 231 2.8 3.3 1011.3 0.0000 0.0000
06:49 8.4 7.3 93 222 2.5 3.3 1011.4 0.0000 0.0000
06:59 8.6 7.5 93 221 2.5 3.3 1011.4 0.0000 0.0000
07:09 8.7 7.6 93 222 2.8 3.6 1011.4 0.0000 0.0000
07:20 8.9 7.8 93 224 2.8 3.6 1011.4 0.0000 0.0000
07:30 9.1 8 93 221 2.8 3.6 1011.4 0.0000 0.0000
07:39 9.2 8.1 93 223 3.1 4.2 1011.3 0.0000 0.0000
07:50 9.4 8.3 93 226 2.8 3.3 1011.3 0.0000 0.0000
08:00 9.7 8.6 93 222 2.8 3.6 1011.4 0.0000 0.0000
08:10 9.9 8.8 93 224 2.8 4.2 1011.5 0.0000 0.0000
08:20 10.3 9.2 93 225 2.8 3.6 1011.4 0.0000 0.0000
08:30 10.7 9.6 93 227 3.1 3.6 1011.4 0.0000 0.0000
08:40 11.1 10 93 226 2.8 3.6 1011.4 0.0000 0.0000
08:50 11.5 10.4 93 230 2.8 3.6 1011.4 0.0000 0.0000
09:00 12 10.9 93 243 1.1 1.7 1011.4 0.0000 0.0000
09:11 12.5 11.2 92 249 0.6 1.7 1011.3 0.0000 0.0000
09:20 13 11.7 92 126 0.3 0.6 1011.4 0.0000 0.0000
09:30 13.5 12.1 91 0 0.3 1011.4 0.0000 0.0000
09:41 14.2 12.8 91 221 0.3 1.4 1011.6 0.0000 0.0000
09:51 14.7 13.1 90 231 2.8 4.2 1011.5 0.0000 0.0000
09:56 14.9 13.3 90 229 4.2 7.2 1011.5 0.0000 0.0000
10:09 15.4 13.4 88 220 4.2 9.7 1011.5 0.0000 0.0000
10:19 15.9 13.7 87 217 3.1 5 1011.5 0.0000 0.0000
10:29 16.5 14 85 218 4.2 8.1 1011.6 0.0000 0.0000
10:40 16.9 14.2 84 216 5 8.1 1011.5 0.0000 0.0000
10:49 17.3 14.2 82 207 4.4 9.2 1011.5 0.0000 0.0000
10:59 17.9 14.4 80 219 3.6 8.6 1011.5 0.0000 0.0000
11:09 18.4 14.5 78 200 2.8 5.6 1011.6 0.0000 0.0000
11:18 18.4 14.3 77 239 2.8 9.4 1011.5 0.0000 0.0000
11:28 18.7 14.6 77 2.5 6.7 1011.5 0.0000 0.0000
11:39 18.8 14.3 75 2.8 5.8 1011.5 0.0000 0.0000
11:49 19.1 14.6 75 350 2.8 5.8 1011.4 0.0000 0.0000
11:58 19.3 14.6 74 2.5 6.1 1011.5 0.0000 0.0000
12:08 19.4 14.4 73 1.9 5 1011.2 0.0000 0.0000
12:19 19.7 14.5 72 215 2.8 6.4 1011.2 0.0000 0.0000
12:29 19.9 14.5 71 282 1.9 3.1 1011.3 0.0000 0.0000
12:37 20.2 14.8 71 234 3.1 6.7 1011.1 0.0000 0.0000
12:48 20.3 14.7 70 240 3.3 5.8 1011.1 0.0000 0.0000
12:58 20.5 14.8 70 243 3.1 5 1011.1 0.0000 0.0000
13:08 20.3 14.2 68 242 2.8 5 1010.8 0.0000 0.0000
13:18 19.9 14.3 70 341 2.8 5.8 1010.8 0.0000 0.0000
13:30 19.9 14.5 71 322 3.1 8.6 1010.9 0.0000 0.0000
13:40 20 13.9 68 2.5 5 1010.7 0.0000 0.0000
13:50 20.1 13.8 67 340 2.8 6.7 1010.7 0.0000 0.0000
14:00 20.2 14.1 68 10 2.5 6.1 1010.6 0.0000 0.0000
14:11 20.2 13.2 64 9 3.3 7.8 1010.6 0.0000 0.0000
14:21 20.1 12.8 63 22 2.8 6.1 1010.3 0.0000 0.0000
14:27 20.2 13.4 65 13 3.1 11.9 1010.4 0.0000 0.0000
14:36 20.5 13.2 63 358 2.8 6.7 1010.3 0.0000 0.0000
14:46 20.7 13.4 63 2.5 7.5 1010.3 0.0000 0.0000
14:57 20.8 13 61 246 2.8 9.2 1010.1 0.0000 0.0000
15:07 21 12.9 60 264 3.1 6.1 1010.1 0.0000 0.0000
15:17 21.2 13.4 61 230 3.3 6.7 1010 0.0000 0.0000
15:27 21.2 12.4 57 228 4.2 7.8 1010 0.0000 0.0000
15:37 21.3 12.4 57 235 5 6.7 1010 0.0000 0.0000
15:47 21.6 13 58 232 5 7.5 1009.8 0.0000 0.0000
15:57 21.7 12.5 56 231 5.6 6.7 1009.7 0.0000 0.0000
16:08 21.8 12.4 55 233 5 7.5 1009.7 0.0000 0.0000
16:18 22 12 53 231 4.7 6.1 1009.6 0.0000 0.0000
16:27 22 12.6 55 235 4.7 7.2 1009.6 0.0000 0.0000
16:38 22.1 13.2 57 245 3.1 6.7 1009.5 0.0000 0.0000
16:48 22.2 13 56 249 2.8 5.8 1009.5 0.0000 0.0000
16:58 22.1 12.6 55 257 3.1 5.6 1009.4 0.0000 0.0000
17:08 21.7 12.5 56 22 4.2 8.9 1009.3 0.0000 0.0000
17:18 21.5 12.6 57 19 4.2 8.9 1009.3 0.0000 0.0000
17:28 21.8 13.2 58 313 3.3 6.4 1009.2 0.0000 0.0000
17:38 21.8 13.2 58 246 3.1 6.7 1009.2 0.0000 0.0000
17:48 22 13.1 57 252 2.8 6.4 1009.1 0.0000 0.0000
18:02 22 13.1 57 214 3.1 8.6 1009 0.0000 0.0000
18:04 22.1 13.5 58 216 4.4 14.7 1009.1 0.0000 0.0000
18:14 22.4 13.2 56 222 6.4 11.7 1009.2 0.0000 0.0000
18:24 22 13.1 57 226 5.8 9.2 1009.1 0.0000 0.0000
18:35 21.6 12.7 57 233 4.2 6.4 1009.2 0.0000 0.0000
18:44 21.2 12.9 59 231 3.1 5 1009.1 0.0000 0.0000
18:54 20.5 12.7 61 238 1.1 2.5 1009.2 0.0000 0.0000
19:04 20 13 64 53 0.3 1.1 1009.2 0.0000 0.0000
19:15 19.4 13.1 67 70 0.6 1.4 1009.1 0.0000 0.0000
19:25 18.9 13.1 69 90 0.3 0.6 1009.1 0.0000 0.0000
19:34 18.4 12.8 70 90 0.3 1.1 1009 0.0000 0.0000
19:45 18 12.9 72 210 0.3 1.4 1009.1 0.0000 0.0000
19:55 17.5 12.8 74 225 0.3 1.4 1009.3 0.0000 0.0000
20:05 17 12.7 76 209 0.3 1.4 1009.3 0.0000 0.0000
20:15 16.6 12.6 77 216 0.3 1.7 1009.4 0.0000 0.0000
20:25 16.2 12.6 79 198 0.3 1.4 1009.4 0.0000 0.0000
20:35 15.7 12.3 80 225 0.3 1.4 1009.4 0.0000 0.0000
20:45 15.3 12.1 81 216 1.1 1.9 1009.5 0.0000 0.0000
20:56 15 12 82 223 1.4 1.9 1009.6 0.0000 0.0000
21:06 14.6 11.7 83 226 1.1 2.5 1009.7 0.0000 0.0000
21:15 14.2 11.4 83 238 0.6 1.9 1009.9 0.0000 0.0000
21:25 13.9 11.2 84 219 0.6 1.4 1009.9 0.0000 0.0000
21:36 13.6 11 84 270 0.6 1.4 1009.9 0.0000 0.0000
21:46 13.4 10.9 85 225 1.4 2.5 1009.9 0.0000 0.0000
21:56 13.1 10.6 85 223 1.4 2.8 1009.9 0.0000 0.0000
22:06 12.9 10.6 86 225 1.4 2.5 1009.9 0.0000 0.0000
22:16 12.7 10.4 86 222 1.7 2.8 1010 0.0000 0.0000
22:26 12.5 10.2 86 221 1.7 2.8 1010 0.0000 0.0000
22:36 12.3 10.2 87 222 1.4 2.8 1010.2 0.0000 0.0000
22:47 12.1 10 87 225 1.4 2.5 1010 0.0000 0.0000
22:56 12 9.9 87 225 1.4 1.9 1010.1 0.0000 0.0000
23:06 11.8 9.9 88 225 1.4 1.9 1010.1 0.0000 0.0000
23:17 11.6 9.7 88 228 1.1 1.9 1010.1 0.0000 0.0000
23:27 11.5 9.6 88 239 1.9 3.3 1010.1 0.0000 0.0000
23:37 11.4 9.5 88 230 2.5 3.3 1010.2 0.0000 0.0000
23:46 11.2 9.3 88 231 2.5 3.3 1010.1 0.0000 0.0000
23:57 11.1 9.4 89 228 2.5 3.3 1010.2 0.0000

STATISTICILE ZILEI

2021-09-17
TEMPERATURA
MEDIA
15.4
MAXIM
22.4
18:14
MINIM
8.4
06:49
PRESIUNEA
MEDIA
1010.8
MAXIM
1012.4
00:55
MINIM
1009.0
18:02
PUNCTUL DE ROUĂ
MEDIA
11.6
MAXIM
14.8
12:37
MINIM
7.3
06:39
UMIDITATEA
MEDIA
80
MAXIM
93
06:49
MINIM
53
16:18
WIND SPEED
MEDIA
2.3
MAXIM
6.4
18:14
WIND GUST
MEDIA
4.3
MAXIM
14.7
18:04
WIND DIRECTION
PREVAILING
SW
75.7%
N
6.9
NE
0.7
E
2.1
SE
1.4
S
1.4
SW
75.7
W
5.6
NW
1.4
PRECIPITATION
RAIN HOUR
0.0
RAIN DAY
0.0
TEMPERATURA (°C)
MINIM
8.4
MAXIM
22.4
MEDIA
15.4
PRESIUNEA (hpa)
MINIM
1009.0
MAXIM
1012.4
MEDIA
1010.8
STATIA METEO